createdAt,value
2022-08-16T00:01:59.835Z,20.75
2022-08-16T00:05:03.028Z,20.71
2022-08-16T00:08:05.078Z,20.66
2022-08-16T00:11:15.078Z,20.62
2022-08-16T00:14:23.385Z,20.58
2022-08-16T00:17:57.057Z,20.52
2022-08-16T00:20:52.809Z,20.47
2022-08-16T00:23:54.732Z,20.42
2022-08-16T00:26:57.129Z,20.36
2022-08-16T00:30:08.574Z,20.32
2022-08-16T00:33:11.124Z,20.29
2022-08-16T00:36:13.536Z,20.24
2022-08-16T00:39:17.463Z,20.20
2022-08-16T00:42:29.680Z,20.14
2022-08-16T00:46:00.489Z,20.04
2022-08-16T00:49:18.750Z,19.96
2022-08-16T00:52:23.774Z,19.88
2022-08-16T00:55:37.911Z,19.83
2022-08-16T00:58:44.025Z,19.76
2022-08-16T01:01:45.848Z,19.70
2022-08-16T01:05:10.417Z,19.66
2022-08-16T01:08:35.463Z,19.61
2022-08-16T01:11:37.136Z,19.58
2022-08-16T01:14:59.778Z,19.53
2022-08-16T01:18:04.326Z,19.48
2022-08-16T01:21:22.381Z,19.42
2022-08-16T01:24:52.050Z,19.34
2022-08-16T01:27:51.356Z,19.22
2022-08-16T01:30:56.705Z,19.05
2022-08-16T01:33:59.796Z,18.93
2022-08-16T01:37:07.589Z,18.88
2022-08-16T01:40:12.632Z,18.84
2022-08-16T01:43:14.252Z,18.82
2022-08-16T01:46:39.173Z,18.78
2022-08-16T01:50:41.069Z,18.68
2022-08-16T01:53:06.555Z,18.63
2022-08-16T01:56:23.511Z,18.60
2022-08-16T01:59:28.013Z,18.54
2022-08-16T02:02:29.972Z,18.50
2022-08-16T02:05:31.741Z,18.45
2022-08-16T02:08:36.445Z,18.40
2022-08-16T02:11:47.909Z,18.35
2022-08-16T02:14:54.604Z,18.31
2022-08-16T02:17:58.636Z,18.28
2022-08-16T02:21:01.689Z,18.25
2022-08-16T02:24:17.568Z,18.23
2022-08-16T02:27:27.835Z,18.22
2022-08-16T02:30:37.350Z,18.20
2022-08-16T02:33:50.647Z,18.18
2022-08-16T02:36:52.457Z,18.15
2022-08-16T02:39:54.429Z,18.11
2022-08-16T02:42:56.627Z,18.06
2022-08-16T02:45:58.789Z,17.99
2022-08-16T02:49:01.738Z,17.93
2022-08-16T02:52:03.780Z,17.86
2022-08-16T02:55:11.728Z,17.78
2022-08-16T02:58:17.595Z,17.71
2022-08-16T03:01:37.141Z,17.65
2022-08-16T03:04:51.167Z,17.63
2022-08-16T03:07:54.409Z,17.65
2022-08-16T03:10:56.125Z,17.66
2022-08-16T03:14:01.082Z,17.65
2022-08-16T03:17:08.991Z,17.65
2022-08-16T03:20:14.317Z,17.69
2022-08-16T03:23:19.959Z,17.68
2022-08-16T03:26:22.028Z,17.69
2022-08-16T03:29:29.866Z,17.69
2022-08-16T03:32:31.868Z,17.69
2022-08-16T03:35:35.805Z,17.69
2022-08-16T03:38:37.855Z,17.65
2022-08-16T03:41:50.619Z,17.61
2022-08-16T03:44:52.660Z,17.56
2022-08-16T03:48:07.213Z,17.50
2022-08-16T03:51:12.247Z,17.46
2022-08-16T03:54:14.420Z,17.41
2022-08-16T03:57:16.538Z,17.39
2022-08-16T04:00:35.826Z,17.37
2022-08-16T04:03:43.237Z,17.35
2022-08-16T04:06:45.872Z,17.31
2022-08-16T04:09:48.398Z,17.26
2022-08-16T04:12:53.149Z,17.21
2022-08-16T04:15:59.284Z,17.18
2022-08-16T04:19:04.849Z,17.16
2022-08-16T04:22:08.573Z,17.15
2022-08-16T04:25:12.815Z,17.12
2022-08-16T04:28:51.870Z,17.09
2022-08-16T04:31:36.451Z,17.08
2022-08-16T04:34:39.706Z,17.11
2022-08-16T04:37:42.632Z,17.11
2022-08-16T04:40:44.372Z,17.13
2022-08-16T04:43:51.221Z,17.14
2022-08-16T04:47:02.601Z,17.15
2022-08-16T04:50:18.107Z,17.16
2022-08-16T04:53:19.836Z,17.13
2022-08-16T04:56:21.399Z,17.12
2022-08-16T04:59:26.012Z,17.14
2022-08-16T05:02:41.591Z,17.17
2022-08-16T05:05:59.154Z,17.20
2022-08-16T05:09:04.572Z,17.29
2022-08-16T05:12:06.264Z,17.40
2022-08-16T05:15:13.034Z,17.52
2022-08-16T05:18:16.685Z,17.62
2022-08-16T05:21:23.188Z,17.74
2022-08-16T05:24:25.054Z,17.84
2022-08-16T05:27:27.404Z,18.03
2022-08-16T05:30:35.134Z,18.28
2022-08-16T05:33:38.901Z,18.56
2022-08-16T05:36:44.191Z,18.79
2022-08-16T05:39:45.883Z,18.95
2022-08-16T05:42:49.268Z,19.06
2022-08-16T05:45:52.148Z,19.10
2022-08-16T05:48:54.844Z,19.15
2022-08-16T05:52:00.012Z,19.18
2022-08-16T05:55:02.630Z,19.24
2022-08-16T05:58:04.599Z,19.31
2022-08-16T06:01:07.006Z,19.43
2022-08-16T06:04:13.710Z,19.51
2022-08-16T06:07:35.763Z,19.54
2022-08-16T06:11:09.738Z,19.55
2022-08-16T06:14:10.895Z,19.54
2022-08-16T06:17:15.259Z,19.56
2022-08-16T06:20:25.631Z,19.60
2022-08-16T06:23:39.618Z,19.62
2022-08-16T06:26:45.915Z,19.69
2022-08-16T06:30:00.784Z,19.73
2022-08-16T06:33:05.374Z,19.76
2022-08-16T06:36:09.051Z,19.78
2022-08-16T06:39:12.417Z,19.82
2022-08-16T06:42:13.992Z,19.85
2022-08-16T06:45:20.908Z,19.89
2022-08-16T06:48:32.904Z,19.91
2022-08-16T06:51:45.754Z,19.95
2022-08-16T06:54:50.336Z,20.00
2022-08-16T06:57:54.100Z,20.06
2022-08-16T07:00:55.659Z,20.12
2022-08-16T07:04:01.169Z,20.19
2022-08-16T07:07:06.224Z,20.23
2022-08-16T07:10:12.305Z,20.28
2022-08-16T07:13:26.545Z,20.34
2022-08-16T07:16:37.742Z,20.41
2022-08-16T07:20:04.078Z,20.48
2022-08-16T07:23:02.475Z,20.56
2022-08-16T07:26:25.288Z,20.62
2022-08-16T07:29:28.113Z,20.67
2022-08-16T07:32:33.446Z,20.75
2022-08-16T07:35:44.246Z,20.83
2022-08-16T07:38:52.327Z,20.90
2022-08-16T07:41:53.924Z,20.96
2022-08-16T07:44:57.188Z,21.00
2022-08-16T07:47:59.391Z,21.05
2022-08-16T07:51:12.931Z,21.09
2022-08-16T07:54:21.208Z,21.14
2022-08-16T07:57:37.968Z,21.18
2022-08-16T08:00:47.807Z,21.21
2022-08-16T08:03:50.147Z,21.25
2022-08-16T08:06:53.115Z,21.30
2022-08-16T08:09:56.504Z,21.37
2022-08-16T08:12:59.351Z,21.42
2022-08-16T08:16:01.319Z,21.46
2022-08-16T08:19:03.260Z,21.50
2022-08-16T08:22:06.996Z,21.54
2022-08-16T08:25:09.456Z,21.61
2022-08-16T08:28:16.105Z,21.67
2022-08-16T08:31:18.893Z,21.73
2022-08-16T08:34:22.307Z,21.78
2022-08-16T08:37:25.594Z,21.85
2022-08-16T08:40:29.400Z,21.91
2022-08-16T08:43:31.603Z,21.98
2022-08-16T08:46:43.545Z,22.03
2022-08-16T08:50:03.780Z,22.08
2022-08-16T08:53:06.481Z,22.16
2022-08-16T08:56:23.806Z,22.22
2022-08-16T08:59:27.307Z,22.31
2022-08-16T09:02:29.839Z,22.39
2022-08-16T09:05:35.749Z,22.47
2022-08-16T09:08:37.695Z,22.55
2022-08-16T09:11:41.056Z,22.63
2022-08-16T09:14:49.507Z,22.68
2022-08-16T09:17:55.736Z,22.73
2022-08-16T09:21:01.771Z,22.80
2022-08-16T09:24:09.851Z,22.86
2022-08-16T09:27:13.180Z,22.94
2022-08-16T09:30:33.655Z,23.01
2022-08-16T09:33:37.173Z,23.11
2022-08-16T09:36:45.209Z,23.19
2022-08-16T09:39:50.331Z,23.26
2022-08-16T09:42:56.569Z,23.31
2022-08-16T09:46:02.691Z,23.37
2022-08-16T09:49:04.638Z,23.42
2022-08-16T09:52:11.000Z,23.48
2022-08-16T09:55:12.633Z,23.52
2022-08-16T09:58:40.779Z,23.54
2022-08-16T10:01:38.566Z,23.56
2022-08-16T10:04:54.632Z,23.61
2022-08-16T10:07:57.031Z,23.66
2022-08-16T10:11:24.601Z,23.73
2022-08-16T10:14:33.361Z,23.81
2022-08-16T10:17:35.818Z,23.90
2022-08-16T10:20:45.041Z,23.95
2022-08-16T10:23:48.575Z,23.97
2022-08-16T10:27:18.899Z,24.02
2022-08-16T10:30:26.168Z,24.13
2022-08-16T10:33:33.944Z,24.36
2022-08-16T10:36:39.263Z,24.60
2022-08-16T10:39:42.525Z,24.84
2022-08-16T10:42:44.320Z,25.05
2022-08-16T10:45:59.905Z,25.28
2022-08-16T10:49:05.092Z,25.51
2022-08-16T10:52:18.255Z,25.65
2022-08-16T10:58:43.456Z,25.94
2022-08-16T11:02:21.789Z,26.11
2022-08-16T11:05:11.707Z,26.31
2022-08-16T11:08:13.417Z,26.49
2022-08-16T11:11:22.479Z,26.61
2022-08-16T11:14:24.656Z,26.79
2022-08-16T11:17:27.640Z,26.94
2022-08-16T11:20:48.815Z,27.10
2022-08-16T11:23:57.812Z,27.19
2022-08-16T11:30:28.462Z,27.28
2022-08-16T11:33:55.815Z,27.34
2022-08-16T11:37:01.265Z,27.45
2022-08-16T11:40:06.839Z,27.55
2022-08-16T11:43:11.422Z,27.59
2022-08-16T11:46:44.940Z,27.68
2022-08-16T11:49:39.766Z,27.87
2022-08-16T11:52:41.393Z,28.00
2022-08-16T11:55:50.532Z,28.09
2022-08-16T11:58:57.168Z,28.12
2022-08-16T12:02:30.939Z,28.22
2022-08-16T12:05:23.101Z,28.30
2022-08-16T12:08:26.388Z,28.32
2022-08-16T12:11:31.243Z,28.34
2022-08-16T12:14:35.355Z,28.33
2022-08-16T12:17:39.621Z,28.34
2022-08-16T12:20:44.099Z,28.36
2022-08-16T12:23:47.416Z,28.43
2022-08-16T12:26:49.124Z,28.42
2022-08-16T12:29:52.644Z,28.36
2022-08-16T12:32:57.708Z,28.35
2022-08-16T12:36:00.635Z,28.46
2022-08-16T12:39:04.578Z,28.56
2022-08-16T12:42:12.145Z,28.66
2022-08-16T12:45:15.249Z,28.78
2022-08-16T12:48:43.165Z,28.90
2022-08-16T12:51:58.710Z,28.98
2022-08-16T12:55:02.954Z,28.97
2022-08-16T12:58:06.147Z,28.95
2022-08-16T13:01:17.027Z,28.97
2022-08-16T13:04:19.742Z,28.95
2022-08-16T13:07:27.337Z,28.85
2022-08-16T13:10:38.156Z,28.74
2022-08-16T13:13:41.024Z,28.69
2022-08-16T13:16:43.110Z,28.64
2022-08-16T13:23:11.537Z,28.51
2022-08-16T13:26:17.493Z,28.45
2022-08-16T13:29:19.733Z,28.49
2022-08-16T13:32:40.226Z,28.54
2022-08-16T13:35:45.017Z,28.59
2022-08-16T13:38:46.949Z,28.64
2022-08-16T13:41:53.896Z,28.66
2022-08-16T13:44:58.493Z,28.64
2022-08-16T13:48:02.461Z,28.57
2022-08-16T13:51:07.502Z,28.50
2022-08-16T13:54:09.230Z,28.41
2022-08-16T13:57:11.877Z,28.33
2022-08-16T14:00:14.519Z,28.28
2022-08-16T14:03:21.824Z,28.21
2022-08-16T14:06:25.581Z,28.20
2022-08-16T14:09:32.026Z,28.30
2022-08-16T14:12:36.513Z,28.41
2022-08-16T14:15:38.265Z,28.43
2022-08-16T14:18:43.834Z,28.40
2022-08-16T14:22:04.835Z,28.46
2022-08-16T14:25:16.583Z,28.59
2022-08-16T14:28:20.370Z,28.70
2022-08-16T14:31:27.763Z,28.72
2022-08-16T14:34:30.032Z,28.67
2022-08-16T14:37:32.937Z,28.60
2022-08-16T14:40:35.659Z,28.54
2022-08-16T14:43:37.649Z,28.58
2022-08-16T14:46:41.837Z,28.63
2022-08-16T14:49:44.624Z,28.71
2022-08-16T14:52:56.438Z,28.68
2022-08-16T14:55:59.020Z,28.62
2022-08-16T14:59:01.060Z,28.57
2022-08-16T15:02:07.781Z,28.51
2022-08-16T15:05:12.804Z,28.43
2022-08-16T15:08:17.719Z,28.37
2022-08-16T15:11:22.026Z,28.31
2022-08-16T15:14:23.681Z,28.30
2022-08-16T15:17:27.722Z,28.38
2022-08-16T15:20:38.747Z,28.49
2022-08-16T15:23:41.362Z,28.58
2022-08-16T15:26:45.200Z,28.69
2022-08-16T15:29:48.798Z,28.76
2022-08-16T15:33:09.216Z,28.85
2022-08-16T15:36:20.457Z,28.89
2022-08-16T15:39:31.775Z,28.88
2022-08-16T15:42:44.249Z,28.88
2022-08-16T15:46:13.808Z,28.87
2022-08-16T15:49:46.416Z,28.89
2022-08-16T15:52:48.369Z,28.95
2022-08-16T15:55:51.946Z,28.99
2022-08-16T15:58:57.076Z,29.01
2022-08-16T16:01:59.375Z,29.01
2022-08-16T16:05:04.314Z,29.01
2022-08-16T16:08:11.838Z,28.93
2022-08-16T16:11:15.649Z,28.85
2022-08-16T16:14:18.412Z,28.78
2022-08-16T16:17:20.371Z,28.72
2022-08-16T16:20:24.320Z,28.64
2022-08-16T16:23:35.709Z,28.58
2022-08-16T16:26:43.285Z,28.57
2022-08-16T16:29:58.153Z,28.59
2022-08-16T16:33:05.404Z,28.59
2022-08-16T16:36:08.977Z,28.60
2022-08-16T16:39:11.008Z,28.59
2022-08-16T16:42:25.653Z,28.55
2022-08-16T16:45:33.347Z,28.49
2022-08-16T16:48:36.617Z,28.43
2022-08-16T16:51:40.809Z,28.37
2022-08-16T16:54:42.844Z,28.32
2022-08-16T16:58:07.382Z,28.30
2022-08-16T17:01:20.541Z,28.25
2022-08-16T17:04:32.016Z,28.27
2022-08-16T17:07:34.349Z,28.24
2022-08-16T17:10:46.722Z,28.20
2022-08-16T17:13:53.133Z,28.12
2022-08-16T17:16:55.163Z,28.07
2022-08-16T17:19:56.884Z,27.99
2022-08-16T17:23:01.129Z,27.91
2022-08-16T17:26:02.971Z,27.83
2022-08-16T17:29:12.117Z,27.67
2022-08-16T17:32:44.316Z,27.52
2022-08-16T17:35:45.626Z,27.38
2022-08-16T17:38:57.591Z,27.25
2022-08-16T17:42:01.118Z,27.14
2022-08-16T17:45:02.884Z,27.03
2022-08-16T17:48:05.345Z,26.91
2022-08-16T17:51:07.105Z,26.78
2022-08-16T17:54:08.799Z,26.67
2022-08-16T17:57:30.359Z,26.57
2022-08-16T18:00:32.468Z,26.44
2022-08-16T18:04:06.717Z,26.36
2022-08-16T18:07:05.285Z,26.27
2022-08-16T18:10:08.625Z,26.22
2022-08-16T18:13:11.205Z,26.20
2022-08-16T18:16:15.893Z,26.17
2022-08-16T18:19:17.485Z,26.10
2022-08-16T18:22:29.823Z,26.04
2022-08-16T18:25:32.128Z,25.96
2022-08-16T18:28:35.547Z,25.90
2022-08-16T18:31:38.890Z,25.84
2022-08-16T18:34:42.315Z,25.75
2022-08-16T18:37:44.058Z,25.66
2022-08-16T18:40:46.162Z,25.58
2022-08-16T18:44:23.867Z,25.50
2022-08-16T18:47:10.095Z,25.37
2022-08-16T18:50:11.670Z,25.27
2022-08-16T18:53:15.061Z,25.27
2022-08-16T18:56:16.716Z,25.12
2022-08-16T18:59:18.548Z,25.06
2022-08-16T19:02:57.539Z,25.01
2022-08-16T19:05:50.888Z,24.95
2022-08-16T19:08:54.314Z,24.90
2022-08-16T19:11:55.912Z,24.86
2022-08-16T19:14:58.119Z,24.80
2022-08-16T19:18:00.439Z,24.76
2022-08-16T19:21:02.309Z,24.70
2022-08-16T19:24:04.197Z,24.62
2022-08-16T19:27:10.196Z,24.54
2022-08-16T19:30:12.377Z,24.47
2022-08-16T19:33:14.053Z,24.39
2022-08-16T19:36:17.122Z,24.33
2022-08-16T19:39:33.931Z,24.24
2022-08-16T19:42:36.926Z,24.18
2022-08-16T19:45:45.387Z,24.14
2022-08-16T19:48:47.753Z,24.09
2022-08-16T19:51:49.460Z,24.04
2022-08-16T19:54:55.063Z,24.00
2022-08-16T19:57:57.446Z,23.94
2022-08-16T20:00:59.196Z,23.88
2022-08-16T20:04:02.267Z,23.84
2022-08-16T20:07:03.922Z,23.81
2022-08-16T20:10:07.525Z,23.75
2022-08-16T20:13:14.864Z,23.67
2022-08-16T20:16:17.604Z,23.57
2022-08-16T20:19:19.269Z,23.46
2022-08-16T20:22:42.218Z,23.37
2022-08-16T20:25:50.028Z,23.27
2022-08-16T20:28:54.651Z,23.17
2022-08-16T20:31:56.861Z,23.08
2022-08-16T20:34:58.436Z,22.99
2022-08-16T20:38:01.780Z,22.93
2022-08-16T20:41:03.590Z,22.86
2022-08-16T20:44:05.188Z,22.81
2022-08-16T20:47:10.105Z,22.73
2022-08-16T20:50:11.776Z,22.64
2022-08-16T20:53:13.406Z,22.55
2022-08-16T20:56:15.054Z,22.48
2022-08-16T20:59:17.325Z,22.42
2022-08-16T21:02:25.472Z,22.36
2022-08-16T21:05:31.204Z,22.27
2022-08-16T21:08:52.432Z,22.20
2022-08-16T21:11:57.340Z,22.10
2022-08-16T21:15:07.011Z,22.03
2022-08-16T21:18:09.061Z,21.97
2022-08-16T21:21:12.126Z,21.89
2022-08-16T21:24:14.421Z,21.83
2022-08-16T21:27:17.637Z,21.77
2022-08-16T21:30:20.930Z,21.71
2022-08-16T21:33:28.145Z,21.65
2022-08-16T21:36:35.624Z,21.63
2022-08-16T21:39:39.172Z,21.55
2022-08-16T21:42:43.467Z,21.46
2022-08-16T21:45:46.835Z,21.37
2022-08-16T21:48:48.424Z,21.27
2022-08-16T21:51:50.841Z,21.21
2022-08-16T21:54:54.141Z,21.17
2022-08-16T21:57:58.235Z,21.15
2022-08-16T22:01:01.006Z,21.12
2022-08-16T22:04:36.710Z,21.08
2022-08-16T22:07:26.088Z,21.03
2022-08-16T22:11:06.220Z,21.01
2022-08-16T22:13:58.762Z,20.92
2022-08-16T22:17:00.961Z,21.10
2022-08-16T22:20:06.566Z,20.99
2022-08-16T22:23:12.892Z,20.91
2022-08-16T22:26:15.790Z,20.83
2022-08-16T22:29:17.372Z,20.72
2022-08-16T22:32:18.974Z,20.60
2022-08-16T22:35:20.681Z,20.50
2022-08-16T22:38:54.139Z,20.39
2022-08-16T22:41:45.684Z,20.23
2022-08-16T22:44:47.707Z,20.10
2022-08-16T22:47:50.220Z,19.93
2022-08-16T22:50:52.982Z,19.80
2022-08-16T22:53:56.157Z,19.71
2022-08-16T22:56:57.913Z,19.62
2022-08-16T22:59:59.515Z,19.53
2022-08-16T23:03:04.601Z,19.42
2022-08-16T23:06:07.207Z,19.34
2022-08-16T23:09:09.143Z,19.28
2022-08-16T23:12:11.516Z,19.22
2022-08-16T23:15:13.698Z,19.16
2022-08-16T23:18:16.703Z,19.11
2022-08-16T23:21:18.452Z,19.09
2022-08-16T23:24:20.597Z,19.06
2022-08-16T23:27:22.445Z,19.04
2022-08-16T23:30:25.654Z,18.97
2022-08-16T23:33:28.521Z,18.94
2022-08-16T23:36:30.061Z,18.88
2022-08-16T23:39:31.803Z,18.84
2022-08-16T23:42:41.911Z,18.80
2022-08-16T23:46:00.620Z,18.77
2022-08-16T23:50:02.379Z,18.73
2022-08-16T23:52:42.263Z,18.68
2022-08-16T23:55:50.229Z,18.60
2022-08-16T23:58:58.284Z,18.52
